createdAt,value
2023-01-27T00:01:07.678Z,21.98
2023-01-27T00:03:36.231Z,23.05
2023-01-27T00:06:06.527Z,23.65
2023-01-27T00:08:34.604Z,25.15
2023-01-27T00:11:20.331Z,36.65
2023-01-27T00:13:48.572Z,49.85
2023-01-27T00:16:18.021Z,22.45
2023-01-27T00:18:46.050Z,41.55
2023-01-27T00:21:31.391Z,28.02
2023-01-27T00:24:16.898Z,21.73
2023-01-27T00:26:44.884Z,41.47
2023-01-27T00:29:21.342Z,37.88
2023-01-27T00:32:08.008Z,36.00
2023-01-27T00:34:35.962Z,28.98
2023-01-27T00:37:06.111Z,27.75
2023-01-27T00:39:34.734Z,39.38
2023-01-27T00:42:02.674Z,24.17
2023-01-27T00:44:30.597Z,34.88
2023-01-27T00:46:59.877Z,24.55
2023-01-27T00:49:28.021Z,27.30
2023-01-27T00:51:55.987Z,46.33
2023-01-27T00:54:23.926Z,38.60
2023-01-27T00:56:51.822Z,23.48
2023-01-27T00:59:19.785Z,49.13
2023-01-27T01:01:47.728Z,26.50
2023-01-27T01:04:17.009Z,20.38
2023-01-27T01:06:47.436Z,17.35
2023-01-27T01:09:15.551Z,18.33
2023-01-27T01:11:43.505Z,30.05
2023-01-27T01:14:11.503Z,30.10
2023-01-27T01:16:39.431Z,31.25
2023-01-27T01:19:07.770Z,24.67
2023-01-27T01:21:40.694Z,29.27
2023-01-27T01:24:08.985Z,28.50
2023-01-27T01:26:37.011Z,23.48
2023-01-27T01:29:04.919Z,27.40
2023-01-27T01:31:32.889Z,19.73
2023-01-27T01:34:00.920Z,23.02
2023-01-27T01:36:29.535Z,20.08
2023-01-27T01:38:59.174Z,19.27
2023-01-27T01:41:28.105Z,19.17
2023-01-27T01:43:56.316Z,23.55
2023-01-27T01:46:24.511Z,20.00
2023-01-27T01:48:55.566Z,21.60
2023-01-27T01:51:32.851Z,19.38
2023-01-27T01:54:06.780Z,16.60
2023-01-27T01:56:39.781Z,18.90
2023-01-27T01:59:13.086Z,17.40
2023-01-27T02:01:42.196Z,22.90
2023-01-27T02:04:15.936Z,21.60
2023-01-27T02:06:50.013Z,19.10
2023-01-27T02:09:21.659Z,17.17
2023-01-27T02:11:49.930Z,18.80
2023-01-27T02:14:19.126Z,21.13
2023-01-27T02:16:47.530Z,13.98
2023-01-27T02:19:23.022Z,16.38
2023-01-27T02:21:53.925Z,18.65
2023-01-27T02:24:26.596Z,16.85
2023-01-27T02:26:56.076Z,20.60
2023-01-27T02:29:24.334Z,17.70
2023-01-27T02:31:52.451Z,21.10
2023-01-27T02:34:23.234Z,19.33
2023-01-27T02:36:56.921Z,16.52
2023-01-27T02:39:28.813Z,14.93
2023-01-27T02:41:59.640Z,17.15
2023-01-27T02:44:27.693Z,16.58
2023-01-27T02:46:55.686Z,17.17
2023-01-27T02:49:23.646Z,18.02
2023-01-27T02:51:51.845Z,18.60
2023-01-27T02:54:19.800Z,16.85
2023-01-27T02:56:47.713Z,15.80
2023-01-27T02:59:18.956Z,18.92
2023-01-27T03:01:49.065Z,17.92
2023-01-27T03:04:17.380Z,17.65
2023-01-27T03:06:45.356Z,20.23
2023-01-27T03:09:13.481Z,17.50
2023-01-27T03:11:58.868Z,15.70
2023-01-27T03:14:45.802Z,15.68
2023-01-27T03:17:32.103Z,14.32
2023-01-27T03:20:00.309Z,14.73
2023-01-27T03:22:28.613Z,15.73
2023-01-27T03:24:56.815Z,15.63
2023-01-27T03:27:25.221Z,13.23
2023-01-27T03:30:17.437Z,16.73
2023-01-27T03:32:54.602Z,15.63
2023-01-27T03:36:13.401Z,16.77
2023-01-27T03:39:09.684Z,14.68
2023-01-27T03:41:55.141Z,17.35
2023-01-27T03:44:44.229Z,15.57
2023-01-27T03:47:14.093Z,15.15
2023-01-27T03:49:42.001Z,19.17
2023-01-27T03:52:10.036Z,18.50
2023-01-27T03:54:38.437Z,16.90
2023-01-27T03:57:06.931Z,13.82
2023-01-27T03:59:36.079Z,15.13
2023-01-27T04:02:22.162Z,15.77
2023-01-27T04:05:09.092Z,14.52
2023-01-27T04:07:37.476Z,13.20
2023-01-27T04:10:06.427Z,13.57
2023-01-27T04:12:33.509Z,15.20
2023-01-27T04:15:01.429Z,12.75
2023-01-27T04:17:30.774Z,14.77
2023-01-27T04:20:00.381Z,16.70
2023-01-27T04:22:28.666Z,13.13
2023-01-27T04:24:56.600Z,14.77
2023-01-27T04:27:24.616Z,18.38
2023-01-27T04:29:52.592Z,15.48
2023-01-27T04:32:20.741Z,13.05
2023-01-27T04:34:48.778Z,12.55
2023-01-27T04:37:18.099Z,18.50
2023-01-27T04:39:47.248Z,13.88
2023-01-27T04:42:15.588Z,16.52
2023-01-27T04:44:43.722Z,13.60
2023-01-27T04:47:11.749Z,15.98
2023-01-27T04:49:39.721Z,16.60
2023-01-27T04:52:07.823Z,12.55
2023-01-27T04:54:37.168Z,14.88
2023-01-27T04:57:05.660Z,14.77
2023-01-27T04:59:33.703Z,15.35
2023-01-27T05:02:01.873Z,14.02
2023-01-27T05:04:30.106Z,20.30
2023-01-27T05:06:58.026Z,15.40
2023-01-27T05:09:26.655Z,16.00
2023-01-27T05:11:56.036Z,10.52
2023-01-27T05:14:24.331Z,10.10
2023-01-27T05:16:52.607Z,18.98
2023-01-27T05:19:20.879Z,12.77
2023-01-27T05:21:49.168Z,11.13
2023-01-27T05:24:17.244Z,14.55
2023-01-27T05:26:45.405Z,13.80
2023-01-27T05:29:14.786Z,11.75
2023-01-27T05:31:42.803Z,14.00
2023-01-27T05:34:10.971Z,19.55
2023-01-27T05:36:39.117Z,28.73
2023-01-27T05:39:08.948Z,29.25
2023-01-27T05:41:37.398Z,22.90
2023-01-27T05:44:06.397Z,23.60
2023-01-27T05:46:39.145Z,23.23
2023-01-27T05:49:07.704Z,15.05
2023-01-27T05:51:37.647Z,12.30
2023-01-27T05:54:05.923Z,14.77
2023-01-27T05:56:34.137Z,12.15
2023-01-27T05:59:02.524Z,21.73
2023-01-27T06:01:32.728Z,17.63
2023-01-27T06:04:02.550Z,21.17
2023-01-27T06:06:32.736Z,22.35
2023-01-27T06:09:01.477Z,16.52
2023-01-27T06:11:29.723Z,16.95
2023-01-27T06:13:58.078Z,15.30
2023-01-27T06:16:26.395Z,15.80
2023-01-27T06:18:54.479Z,19.23
2023-01-27T06:21:23.811Z,17.35
2023-01-27T06:23:53.438Z,31.15
2023-01-27T06:26:21.684Z,15.88
2023-01-27T06:28:49.655Z,19.33
2023-01-27T06:31:19.286Z,16.98
2023-01-27T06:33:47.509Z,20.65
2023-01-27T06:36:17.286Z,24.67
2023-01-27T06:38:47.072Z,19.95
2023-01-27T06:41:15.215Z,18.60
2023-01-27T06:43:43.259Z,14.45
2023-01-27T06:46:11.295Z,23.30
2023-01-27T06:48:39.261Z,23.77
2023-01-27T06:51:07.814Z,21.85
2023-01-27T06:53:52.532Z,19.45
2023-01-27T06:56:20.577Z,13.88
2023-01-27T06:58:48.589Z,18.15
2023-01-27T07:01:16.666Z,15.68
2023-01-27T07:03:45.213Z,15.85
2023-01-27T07:06:16.191Z,18.70
2023-01-27T07:08:45.850Z,19.23
2023-01-27T07:11:15.529Z,13.32
2023-01-27T07:13:43.553Z,15.57
2023-01-27T07:16:11.741Z,14.52
2023-01-27T07:18:39.775Z,21.02
2023-01-27T07:21:08.015Z,16.85
2023-01-27T07:23:36.323Z,49.67
2023-01-27T07:26:09.943Z,34.97
2023-01-27T07:28:41.997Z,21.15
2023-01-27T07:31:10.190Z,16.70
2023-01-27T07:33:38.273Z,18.20
2023-01-27T07:36:06.787Z,23.35
2023-01-27T07:38:35.080Z,19.75
2023-01-27T07:41:06.072Z,13.38
2023-01-27T07:43:34.781Z,40.58
2023-01-27T07:46:09.017Z,27.30
2023-01-27T07:48:37.329Z,38.10
2023-01-27T07:51:05.449Z,25.50
2023-01-27T07:53:33.430Z,26.20
2023-01-27T07:56:01.501Z,26.23
2023-01-27T07:58:29.532Z,17.92
2023-01-27T08:00:57.780Z,15.95
2023-01-27T08:03:27.445Z,21.73
2023-01-27T08:05:55.549Z,38.53
2023-01-27T08:08:23.669Z,55.28
2023-01-27T08:10:51.685Z,41.75
2023-01-27T08:13:19.769Z,40.88
2023-01-27T08:15:47.845Z,26.90
2023-01-27T08:18:15.824Z,26.38
2023-01-27T08:20:46.054Z,29.42
2023-01-27T08:23:14.187Z,24.23
2023-01-27T08:25:42.248Z,17.70
2023-01-27T08:28:10.185Z,32.13
2023-01-27T08:30:38.289Z,19.48
2023-01-27T08:33:06.305Z,27.85
2023-01-27T08:35:37.111Z,18.33
2023-01-27T08:38:06.819Z,29.00
2023-01-27T08:40:34.814Z,23.75
2023-01-27T08:43:04.953Z,19.65
2023-01-27T08:45:33.417Z,19.50
2023-01-27T08:48:01.661Z,24.20
2023-01-27T08:50:30.542Z,33.17
2023-01-27T08:52:59.198Z,15.30
2023-01-27T08:55:28.938Z,39.15
2023-01-27T08:57:57.193Z,18.70
2023-01-27T09:00:25.285Z,21.33
2023-01-27T09:02:53.897Z,19.85
2023-01-27T09:05:23.142Z,14.02
2023-01-27T09:07:51.184Z,14.10
2023-01-27T09:10:19.566Z,14.63
2023-01-27T09:12:49.000Z,13.70
2023-01-27T09:15:17.355Z,14.80
2023-01-27T09:17:45.346Z,14.40
2023-01-27T09:20:14.377Z,18.20
2023-01-27T09:22:42.893Z,26.05
2023-01-27T09:25:18.359Z,14.50
2023-01-27T09:27:46.357Z,12.35
2023-01-27T09:30:17.631Z,14.93
2023-01-27T09:32:45.599Z,14.82
2023-01-27T09:35:13.919Z,15.93
2023-01-27T09:37:46.054Z,19.08
2023-01-27T09:40:21.853Z,13.65
2023-01-27T09:43:09.705Z,15.55
2023-01-27T09:45:53.109Z,11.30
2023-01-27T09:48:45.221Z,13.57
2023-01-27T09:51:21.263Z,14.50
2023-01-27T09:54:16.453Z,15.68
2023-01-27T09:56:53.913Z,13.75
2023-01-27T09:59:40.992Z,14.90
2023-01-27T10:02:23.614Z,13.70
2023-01-27T10:05:32.075Z,14.15
2023-01-27T10:08:13.488Z,21.75
2023-01-27T10:10:56.655Z,14.52
2023-01-27T10:13:33.334Z,15.40
2023-01-27T10:16:27.989Z,11.25
2023-01-27T10:19:18.668Z,14.13
2023-01-27T10:21:57.160Z,10.43
2023-01-27T10:24:40.557Z,15.35
2023-01-27T10:27:14.758Z,13.68
2023-01-27T10:29:46.885Z,12.68
2023-01-27T10:32:26.707Z,19.02
2023-01-27T10:35:09.931Z,14.07
2023-01-27T10:37:48.461Z,11.30
2023-01-27T10:40:24.116Z,12.00
2023-01-27T10:42:59.468Z,15.18
2023-01-27T10:45:35.880Z,11.80
2023-01-27T10:48:24.357Z,13.43
2023-01-27T10:50:58.754Z,10.82
2023-01-27T10:53:31.923Z,13.18
2023-01-27T10:56:04.249Z,13.82
2023-01-27T10:58:43.494Z,12.70
2023-01-27T11:01:22.657Z,18.80
2023-01-27T11:03:56.870Z,15.55
2023-01-27T11:06:29.858Z,12.45
2023-01-27T11:09:13.936Z,13.15
2023-01-27T11:11:46.581Z,12.80
2023-01-27T11:14:23.641Z,9.73
2023-01-27T11:16:54.095Z,11.65
2023-01-27T11:19:36.168Z,12.93
2023-01-27T11:22:15.155Z,14.25
2023-01-27T11:24:48.118Z,18.50
2023-01-27T11:27:28.090Z,12.65
2023-01-27T11:29:59.264Z,11.32
2023-01-27T11:32:40.568Z,15.55
2023-01-27T11:35:12.317Z,15.15
2023-01-27T11:37:43.901Z,12.95
2023-01-27T11:40:21.370Z,24.80
2023-01-27T11:42:51.839Z,17.25
2023-01-27T11:45:22.135Z,10.60
2023-01-27T11:47:54.558Z,10.75
2023-01-27T11:50:24.730Z,14.73
2023-01-27T11:53:00.738Z,10.05
2023-01-27T11:55:36.243Z,9.98
2023-01-27T11:58:13.324Z,19.30
2023-01-27T12:00:46.213Z,18.15
2023-01-27T12:03:19.913Z,11.82
2023-01-27T12:05:53.534Z,12.80
2023-01-27T12:08:41.356Z,12.18
2023-01-27T12:11:21.607Z,25.08
2023-01-27T12:13:51.341Z,18.80
2023-01-27T12:16:20.392Z,10.90
2023-01-27T12:18:53.210Z,9.73
2023-01-27T12:21:22.658Z,7.30
2023-01-27T12:23:55.242Z,16.63
2023-01-27T12:26:36.462Z,12.68
2023-01-27T12:29:07.411Z,6.15
2023-01-27T12:31:47.439Z,13.15
2023-01-27T12:34:24.657Z,14.48
2023-01-27T12:36:53.044Z,15.80
2023-01-27T12:39:34.067Z,15.70
2023-01-27T12:42:02.157Z,13.18
2023-01-27T12:44:42.020Z,16.60
2023-01-27T12:47:28.132Z,22.67
2023-01-27T12:50:21.545Z,12.45
2023-01-27T12:52:54.967Z,7.78
2023-01-27T12:55:31.923Z,12.90
2023-01-27T12:57:59.988Z,10.63
2023-01-27T13:00:28.217Z,10.73
2023-01-27T13:03:05.947Z,11.60
2023-01-27T13:05:39.791Z,9.52
2023-01-27T13:08:14.024Z,6.68
2023-01-27T13:10:51.879Z,13.15
2023-01-27T13:13:24.831Z,21.80
2023-01-27T13:15:56.995Z,39.17
2023-01-27T13:18:25.378Z,14.27
2023-01-27T13:21:00.117Z,11.85
2023-01-27T13:23:31.728Z,5.85
2023-01-27T13:26:11.390Z,14.65
2023-01-27T13:28:52.910Z,9.73
2023-01-27T13:31:33.996Z,19.65
2023-01-27T13:34:07.300Z,10.35
2023-01-27T13:36:41.834Z,17.70
2023-01-27T13:39:18.420Z,9.75
2023-01-27T13:41:55.571Z,34.40
2023-01-27T13:44:29.215Z,11.68
2023-01-27T13:47:02.517Z,8.25
2023-01-27T13:49:36.940Z,6.07
2023-01-27T13:52:07.433Z,6.35
2023-01-27T13:54:35.648Z,9.02
2023-01-27T13:57:27.933Z,12.05
2023-01-27T14:00:06.745Z,8.38
2023-01-27T14:02:51.003Z,6.95
2023-01-27T14:05:29.880Z,7.65
2023-01-27T14:08:13.177Z,39.85
2023-01-27T14:10:45.007Z,15.32
2023-01-27T14:13:28.239Z,18.88
2023-01-27T14:16:03.181Z,10.07
2023-01-27T14:18:34.299Z,11.68
2023-01-27T14:21:14.951Z,9.38
2023-01-27T14:23:51.880Z,12.25
2023-01-27T14:26:32.485Z,13.48
2023-01-27T14:29:13.757Z,15.35
2023-01-27T14:31:51.686Z,29.38
2023-01-27T14:34:36.109Z,18.20
2023-01-27T14:37:16.099Z,56.10
2023-01-27T14:39:53.314Z,28.38
2023-01-27T14:42:29.168Z,11.48
2023-01-27T14:45:06.134Z,7.20
2023-01-27T14:47:43.101Z,9.32
2023-01-27T14:50:28.474Z,7.47
2023-01-27T14:53:09.661Z,6.45
2023-01-27T14:55:47.317Z,5.72
2023-01-27T14:58:36.757Z,6.72
2023-01-27T15:01:15.492Z,7.47
2023-01-27T15:04:09.469Z,7.40
2023-01-27T15:06:45.131Z,9.93
2023-01-27T15:09:25.354Z,7.93
2023-01-27T15:12:12.872Z,9.02
2023-01-27T15:15:09.402Z,9.23
2023-01-27T15:17:52.647Z,7.53
2023-01-27T15:20:34.716Z,8.10
2023-01-27T15:23:15.796Z,7.63
2023-01-27T15:25:47.288Z,8.35
2023-01-27T15:28:18.085Z,9.15
2023-01-27T15:31:09.438Z,8.68
2023-01-27T15:33:52.913Z,8.35
2023-01-27T15:36:37.533Z,7.43
2023-01-27T15:39:25.907Z,6.47
2023-01-27T15:42:15.238Z,7.53
2023-01-27T15:44:59.907Z,5.10
2023-01-27T15:47:30.160Z,4.45
2023-01-27T15:50:14.204Z,7.45
2023-01-27T15:52:46.699Z,8.02
2023-01-27T15:55:27.243Z,9.98
2023-01-27T15:58:05.443Z,9.45
2023-01-27T16:00:37.803Z,8.13
2023-01-27T16:03:07.717Z,7.47
2023-01-27T16:05:46.828Z,6.20
2023-01-27T16:08:17.006Z,14.48
2023-01-27T16:10:45.515Z,15.05
2023-01-27T16:13:24.331Z,33.70
2023-01-27T16:16:24.067Z,24.08
2023-01-27T16:18:59.742Z,29.02
2023-01-27T16:21:44.949Z,14.00
2023-01-27T16:24:24.816Z,7.82
2023-01-27T16:26:58.912Z,9.43
2023-01-27T16:29:36.961Z,12.10
2023-01-27T16:32:07.905Z,17.63
2023-01-27T16:34:40.941Z,20.05
2023-01-27T16:37:20.457Z,14.82
2023-01-27T16:39:51.562Z,7.65
2023-01-27T16:42:20.021Z,8.75
2023-01-27T16:44:50.771Z,5.78
2023-01-27T16:47:25.017Z,7.63
2023-01-27T16:49:55.880Z,10.93
2023-01-27T16:52:41.226Z,7.03
2023-01-27T16:55:26.936Z,12.77
2023-01-27T16:57:57.998Z,18.35
2023-01-27T17:00:29.715Z,14.40
2023-01-27T17:03:02.981Z,14.15
2023-01-27T17:05:31.201Z,14.43
2023-01-27T17:08:15.443Z,8.15
2023-01-27T17:10:46.189Z,10.02
2023-01-27T17:13:28.580Z,7.57
2023-01-27T17:15:58.866Z,7.18
2023-01-27T17:18:27.767Z,12.98
2023-01-27T17:20:56.334Z,11.38
2023-01-27T17:23:34.220Z,11.70
2023-01-27T17:26:07.828Z,9.07
2023-01-27T17:28:36.551Z,11.32
2023-01-27T17:31:08.035Z,10.32
2023-01-27T17:33:38.214Z,12.30
2023-01-27T17:36:11.075Z,18.25
2023-01-27T17:38:46.345Z,15.15
2023-01-27T17:41:46.414Z,15.65
2023-01-27T17:44:16.030Z,11.48
2023-01-27T17:46:44.025Z,8.45
2023-01-27T17:49:16.624Z,10.70
2023-01-27T17:51:48.212Z,12.13
2023-01-27T17:54:24.130Z,10.73
2023-01-27T17:56:58.556Z,9.90
2023-01-27T17:59:27.875Z,18.83
2023-01-27T18:02:00.220Z,14.88
2023-01-27T18:04:28.454Z,29.40
2023-01-27T18:06:56.637Z,16.40
2023-01-27T18:09:28.626Z,19.50
2023-01-27T18:11:59.212Z,22.85
2023-01-27T18:14:30.567Z,49.88
2023-01-27T18:17:00.353Z,40.03
2023-01-27T18:19:28.840Z,17.58
2023-01-27T18:22:14.943Z,16.17
2023-01-27T18:24:51.594Z,26.80
2023-01-27T18:27:29.407Z,15.50
2023-01-27T18:30:02.183Z,16.55
2023-01-27T18:32:39.509Z,11.13
2023-01-27T18:35:26.680Z,27.27
2023-01-27T18:37:58.400Z,24.27
2023-01-27T18:40:30.561Z,28.92
2023-01-27T18:42:59.060Z,30.83
2023-01-27T18:45:28.154Z,20.40
2023-01-27T18:47:59.521Z,25.75
2023-01-27T18:50:28.782Z,14.85
2023-01-27T18:52:56.747Z,18.60
2023-01-27T18:55:29.678Z,22.75
2023-01-27T18:57:59.149Z,31.67
2023-01-27T19:00:30.150Z,19.40
2023-01-27T19:03:01.262Z,20.02
2023-01-27T19:05:33.314Z,20.73
2023-01-27T19:08:01.884Z,20.50
2023-01-27T19:10:33.584Z,28.23
2023-01-27T19:13:05.653Z,32.28
2023-01-27T19:15:35.945Z,28.10
2023-01-27T19:18:13.740Z,19.23
2023-01-27T19:20:41.802Z,12.60
2023-01-27T19:23:14.029Z,13.15
2023-01-27T19:25:43.800Z,13.88
2023-01-27T19:28:17.888Z,11.73
2023-01-27T19:30:47.511Z,12.73
2023-01-27T19:33:19.353Z,14.45
2023-01-27T19:35:51.985Z,12.13
2023-01-27T19:38:20.119Z,15.45
2023-01-27T19:40:49.813Z,17.85
2023-01-27T19:43:18.220Z,23.40
2023-01-27T19:45:48.214Z,20.83
2023-01-27T19:48:17.989Z,15.55
2023-01-27T19:51:12.134Z,15.38
2023-01-27T19:53:40.199Z,18.33
2023-01-27T19:56:17.047Z,16.98
2023-01-27T19:58:47.148Z,17.38
2023-01-27T20:01:15.338Z,11.85
2023-01-27T20:03:43.293Z,20.23
2023-01-27T20:06:17.238Z,23.95
2023-01-27T20:08:45.726Z,25.02
2023-01-27T20:11:29.955Z,24.63
2023-01-27T20:13:58.497Z,22.85
2023-01-27T20:16:27.046Z,19.98
2023-01-27T20:18:56.833Z,18.38
2023-01-27T20:21:26.121Z,15.18
2023-01-27T20:23:54.185Z,16.25
2023-01-27T20:26:24.121Z,25.40
2023-01-27T20:28:52.093Z,22.20
2023-01-27T20:31:23.151Z,25.52
2023-01-27T20:33:51.353Z,19.17
2023-01-27T20:36:22.037Z,15.35
2023-01-27T20:38:50.096Z,13.55
2023-01-27T20:41:20.351Z,12.82
2023-01-27T20:43:49.857Z,9.77
2023-01-27T20:46:20.854Z,10.88
2023-01-27T20:48:48.868Z,9.38
2023-01-27T20:51:17.624Z,11.05
2023-01-27T20:53:46.770Z,8.50
2023-01-27T20:56:15.805Z,10.10
2023-01-27T20:58:45.796Z,8.25
2023-01-27T21:01:16.931Z,13.50
2023-01-27T21:03:45.342Z,9.00
2023-01-27T21:06:15.764Z,8.10
2023-01-27T21:08:43.934Z,9.15
2023-01-27T21:11:13.118Z,8.75
2023-01-27T21:13:41.322Z,8.15
2023-01-27T21:16:10.620Z,9.95
2023-01-27T21:18:40.119Z,9.68
2023-01-27T21:21:08.063Z,8.73
2023-01-27T21:23:37.171Z,11.82
2023-01-27T21:26:09.125Z,14.68
2023-01-27T21:28:37.097Z,35.63
2023-01-27T21:31:09.570Z,24.98
2023-01-27T21:33:40.303Z,20.85
2023-01-27T21:36:10.877Z,15.77
2023-01-27T21:38:39.303Z,9.60
2023-01-27T21:41:08.655Z,16.05
2023-01-27T21:43:54.655Z,14.35
2023-01-27T21:46:22.974Z,13.98
2023-01-27T21:48:52.350Z,8.98
2023-01-27T21:51:20.309Z,11.57
2023-01-27T21:53:48.242Z,21.08
2023-01-27T21:56:16.266Z,11.85
2023-01-27T21:58:44.428Z,12.77
2023-01-27T22:01:12.539Z,10.20
2023-01-27T22:03:40.509Z,20.70
2023-01-27T22:06:10.774Z,18.83
2023-01-27T22:08:38.658Z,11.93
2023-01-27T22:11:07.883Z,10.68
2023-01-27T22:13:37.069Z,8.95
2023-01-27T22:16:05.986Z,12.40
2023-01-27T22:18:34.074Z,10.68
2023-01-27T22:21:02.808Z,8.15
2023-01-27T22:23:32.151Z,10.30
2023-01-27T22:26:00.149Z,9.10
2023-01-27T22:28:28.493Z,7.05
2023-01-27T22:30:56.457Z,8.65
2023-01-27T22:33:24.393Z,11.50
2023-01-27T22:35:59.983Z,10.25
2023-01-27T22:38:28.026Z,10.10
2023-01-27T22:41:00.471Z,9.27
2023-01-27T22:43:28.408Z,8.98
2023-01-27T22:45:56.378Z,17.85
2023-01-27T22:48:24.447Z,20.65
2023-01-27T22:50:52.405Z,32.10
2023-01-27T22:53:20.494Z,14.27
2023-01-27T22:55:48.434Z,8.00
2023-01-27T22:58:17.664Z,5.63
2023-01-27T23:00:45.608Z,13.60
2023-01-27T23:03:13.501Z,9.75
2023-01-27T23:05:41.378Z,8.10
2023-01-27T23:08:09.543Z,25.85
2023-01-27T23:10:37.894Z,11.70
2023-01-27T23:13:05.986Z,23.95
2023-01-27T23:15:35.514Z,12.80
2023-01-27T23:18:11.172Z,27.25
2023-01-27T23:20:39.962Z,15.90
2023-01-27T23:23:08.441Z,16.65
2023-01-27T23:25:37.188Z,15.52
2023-01-27T23:28:05.185Z,18.40
2023-01-27T23:30:33.312Z,12.52
2023-01-27T23:33:02.875Z,9.35
2023-01-27T23:35:30.824Z,15.30
2023-01-27T23:37:58.920Z,10.27
2023-01-27T23:40:27.111Z,9.02
2023-01-27T23:42:55.310Z,5.60
2023-01-27T23:45:23.256Z,8.50
2023-01-27T23:47:51.229Z,6.70
2023-01-27T23:50:20.608Z,5.68
2023-01-27T23:52:48.634Z,5.38
2023-01-27T23:55:17.140Z,7.00
2023-01-27T23:57:45.152Z,13.15
